createdAt,value
2022-11-30T00:01:50.458Z,5.60
2022-11-30T00:04:17.667Z,5.60
2022-11-30T00:06:44.674Z,5.60
2022-11-30T00:09:11.470Z,5.60
2022-11-30T00:11:38.292Z,5.60
2022-11-30T00:14:05.445Z,5.60
2022-11-30T00:16:32.625Z,5.60
2022-11-30T00:19:01.036Z,5.60
2022-11-30T00:21:28.133Z,5.60
2022-11-30T00:23:55.201Z,5.60
2022-11-30T00:26:22.003Z,5.60
2022-11-30T00:28:49.351Z,5.60
2022-11-30T00:31:18.502Z,5.60
2022-11-30T00:33:46.120Z,5.60
2022-11-30T00:36:17.208Z,5.60
2022-11-30T00:38:44.947Z,5.60
2022-11-30T00:41:12.606Z,5.60
2022-11-30T00:43:41.939Z,5.60
2022-11-30T00:46:09.893Z,5.60
2022-11-30T00:48:37.501Z,5.60
2022-11-30T00:51:06.111Z,5.70
2022-11-30T00:53:34.365Z,5.70
2022-11-30T00:56:01.910Z,5.70
2022-11-30T00:58:28.725Z,5.70
2022-11-30T01:00:55.704Z,5.70
2022-11-30T01:03:22.989Z,5.70
2022-11-30T01:05:50.017Z,5.70
2022-11-30T01:08:16.909Z,5.70
2022-11-30T01:10:45.446Z,5.70
2022-11-30T01:13:13.349Z,5.70
2022-11-30T01:15:43.323Z,5.70
2022-11-30T01:18:11.135Z,5.60
2022-11-30T01:20:41.932Z,5.60
2022-11-30T01:23:09.019Z,5.60
2022-11-30T01:25:36.103Z,5.60
2022-11-30T01:28:05.315Z,5.60
2022-11-30T01:30:32.277Z,5.60
2022-11-30T01:33:02.785Z,5.60
2022-11-30T01:35:29.590Z,5.60
2022-11-30T01:37:56.481Z,5.70
2022-11-30T01:40:23.813Z,5.70
2022-11-30T01:42:51.192Z,5.70
2022-11-30T01:45:19.439Z,5.60
2022-11-30T01:47:51.747Z,5.60
2022-11-30T01:50:27.206Z,5.60
2022-11-30T01:52:57.339Z,5.60
2022-11-30T01:55:29.929Z,5.60
2022-11-30T01:57:59.113Z,5.60
2022-11-30T02:00:27.515Z,5.50
2022-11-30T02:03:02.864Z,5.50
2022-11-30T02:05:31.347Z,5.50
2022-11-30T02:07:58.493Z,5.50
2022-11-30T02:10:29.925Z,5.50
2022-11-30T02:13:29.557Z,5.50
2022-11-30T02:16:08.852Z,5.50
2022-11-30T02:18:53.546Z,5.50
2022-11-30T02:21:28.633Z,5.50
2022-11-30T02:24:39.248Z,5.50
2022-11-30T02:27:39.122Z,5.50
2022-11-30T02:30:13.988Z,5.60
2022-11-30T02:32:49.988Z,5.50
2022-11-30T02:35:22.832Z,5.50
2022-11-30T02:37:57.929Z,5.50
2022-11-30T02:40:25.430Z,5.50
2022-11-30T02:42:57.767Z,5.50
2022-11-30T02:45:34.834Z,5.50
2022-11-30T02:48:09.235Z,5.50
2022-11-30T02:50:41.856Z,5.50
2022-11-30T02:53:12.630Z,5.60
2022-11-30T02:55:45.997Z,5.50
2022-11-30T02:58:17.621Z,5.50
2022-11-30T03:00:48.618Z,5.50
2022-11-30T03:03:17.868Z,5.50
2022-11-30T03:05:44.841Z,5.50
2022-11-30T03:08:12.232Z,5.60
2022-11-30T03:10:45.645Z,5.60
2022-11-30T03:13:16.519Z,5.60
2022-11-30T03:15:43.633Z,5.60
2022-11-30T03:18:13.417Z,5.60
2022-11-30T03:20:41.809Z,5.60
2022-11-30T03:23:09.538Z,5.60
2022-11-30T03:25:36.597Z,5.60
2022-11-30T03:28:04.300Z,5.60
2022-11-30T03:30:31.423Z,5.60
2022-11-30T03:32:58.295Z,5.60
2022-11-30T03:35:26.573Z,5.60
2022-11-30T03:37:53.772Z,5.60
2022-11-30T03:40:20.802Z,5.60
2022-11-30T03:42:47.839Z,5.60
2022-11-30T03:45:14.921Z,5.70
2022-11-30T03:47:42.682Z,5.60
2022-11-30T03:50:10.551Z,5.60
2022-11-30T03:52:38.792Z,5.60
2022-11-30T03:55:07.504Z,5.60
2022-11-30T03:57:34.550Z,5.60
2022-11-30T04:00:01.927Z,5.60
2022-11-30T04:02:44.283Z,5.60
2022-11-30T04:05:11.677Z,5.60
2022-11-30T04:07:40.073Z,5.50
2022-11-30T04:10:09.015Z,5.50
2022-11-30T04:12:36.116Z,5.50
2022-11-30T04:15:03.979Z,5.50
2022-11-30T04:17:31.353Z,5.50
2022-11-30T04:19:58.298Z,5.50
2022-11-30T04:22:25.451Z,5.50
2022-11-30T04:24:54.456Z,5.50
2022-11-30T04:27:21.401Z,5.60
2022-11-30T04:29:48.345Z,5.60
2022-11-30T04:32:15.454Z,5.60
2022-11-30T04:34:42.552Z,5.60
2022-11-30T04:37:09.556Z,5.60
2022-11-30T04:39:36.512Z,5.60
2022-11-30T04:42:05.266Z,5.60
2022-11-30T04:44:32.407Z,5.60
2022-11-30T04:46:59.308Z,5.60
2022-11-30T04:52:18.006Z,5.70
2022-11-30T04:54:45.473Z,5.70
2022-11-30T04:57:14.286Z,5.60
2022-11-30T04:59:41.369Z,5.70
2022-11-30T05:02:08.504Z,5.70
2022-11-30T05:04:35.578Z,5.70
2022-11-30T05:07:02.883Z,5.70
2022-11-30T05:09:29.952Z,5.70
2022-11-30T05:11:56.922Z,5.70
2022-11-30T05:14:25.395Z,5.70
2022-11-30T05:16:52.800Z,5.70
2022-11-30T05:19:19.812Z,5.70
2022-11-30T05:21:47.082Z,5.80
2022-11-30T05:24:14.299Z,5.80
2022-11-30T05:26:41.383Z,5.70
2022-11-30T05:29:08.399Z,5.80
2022-11-30T05:31:39.022Z,5.80
2022-11-30T05:34:06.018Z,5.80
2022-11-30T05:36:33.011Z,5.80
2022-11-30T05:38:59.923Z,5.80
2022-11-30T05:41:27.590Z,5.80
2022-11-30T05:43:54.545Z,5.80
2022-11-30T05:46:22.216Z,5.80
2022-11-30T05:48:50.535Z,5.80
2022-11-30T05:51:20.201Z,5.80
2022-11-30T05:53:47.988Z,5.80
2022-11-30T05:56:18.904Z,5.80
2022-11-30T05:58:47.611Z,5.80
2022-11-30T06:01:20.123Z,5.70
2022-11-30T06:03:48.046Z,5.70
2022-11-30T06:06:17.115Z,5.70
2022-11-30T06:08:45.339Z,5.70
2022-11-30T06:11:12.694Z,5.70
2022-11-30T06:13:40.672Z,5.70
2022-11-30T06:16:10.770Z,5.70
2022-11-30T06:18:39.791Z,5.60
2022-11-30T06:21:11.453Z,5.60
2022-11-30T06:23:42.304Z,5.70
2022-11-30T06:26:12.522Z,5.70
2022-11-30T06:28:45.331Z,5.60
2022-11-30T06:31:14.785Z,5.60
2022-11-30T06:33:45.153Z,5.60
2022-11-30T06:36:12.191Z,5.60
2022-11-30T06:38:39.054Z,5.60
2022-11-30T06:41:09.984Z,5.60
2022-11-30T06:43:39.003Z,5.60
2022-11-30T06:46:07.516Z,5.60
2022-11-30T06:48:35.450Z,5.60
2022-11-30T06:51:05.981Z,5.60
2022-11-30T06:53:33.325Z,5.60
2022-11-30T06:56:09.977Z,5.60
2022-11-30T06:58:40.227Z,5.60
2022-11-30T07:01:09.753Z,5.60
2022-11-30T07:03:37.421Z,5.60
2022-11-30T07:06:08.262Z,5.70
2022-11-30T07:08:35.921Z,5.70
2022-11-30T07:11:02.881Z,5.70
2022-11-30T07:13:30.116Z,5.70
2022-11-30T07:16:04.433Z,5.70
2022-11-30T07:18:32.241Z,5.70
2022-11-30T07:21:00.967Z,5.70
2022-11-30T07:23:29.805Z,5.70
2022-11-30T07:26:02.076Z,5.70
2022-11-30T07:28:28.827Z,5.70
2022-11-30T07:30:55.783Z,5.70
2022-11-30T07:33:23.949Z,5.70
2022-11-30T07:35:53.007Z,5.70
2022-11-30T07:38:20.804Z,5.70
2022-11-30T07:40:47.622Z,5.70
2022-11-30T07:43:14.496Z,5.70
2022-11-30T07:45:41.821Z,5.70
2022-11-30T07:48:08.755Z,5.70
2022-11-30T07:53:28.624Z,5.70
2022-11-30T07:56:02.976Z,5.70
2022-11-30T07:58:30.407Z,5.70
2022-11-30T08:01:02.579Z,5.70
2022-11-30T08:03:35.243Z,5.70
2022-11-30T08:06:08.586Z,5.80
2022-11-30T08:08:41.375Z,5.80
2022-11-30T08:11:11.187Z,5.80
2022-11-30T08:13:38.460Z,5.80
2022-11-30T08:16:09.257Z,5.80
2022-11-30T08:18:36.741Z,5.80
2022-11-30T08:21:07.999Z,5.80
2022-11-30T08:23:38.360Z,5.80
2022-11-30T08:26:08.527Z,5.90
2022-11-30T08:28:35.681Z,5.90
2022-11-30T08:31:04.230Z,5.90
2022-11-30T08:33:32.033Z,5.90
2022-11-30T08:36:08.520Z,5.90
2022-11-30T08:38:35.471Z,5.90
2022-11-30T08:41:02.645Z,5.90
2022-11-30T08:43:30.617Z,5.90
2022-11-30T08:45:58.245Z,5.90
2022-11-30T08:48:25.319Z,5.90
2022-11-30T08:53:45.470Z,6.00
2022-11-30T08:56:15.493Z,6.00
2022-11-30T08:58:43.000Z,6.00
2022-11-30T09:01:13.271Z,6.00
2022-11-30T09:03:41.335Z,6.00
2022-11-30T09:06:10.969Z,6.00
2022-11-30T09:08:40.935Z,6.10
2022-11-30T09:11:12.713Z,6.10
2022-11-30T09:13:40.716Z,6.10
2022-11-30T09:16:08.707Z,6.10
2022-11-30T09:18:36.218Z,6.10
2022-11-30T09:21:07.684Z,6.20
2022-11-30T09:23:41.701Z,6.20
2022-11-30T09:26:12.972Z,6.20
2022-11-30T09:28:40.144Z,6.30
2022-11-30T09:31:12.810Z,6.30
2022-11-30T09:33:40.130Z,6.30
2022-11-30T09:36:10.278Z,6.40
2022-11-30T09:38:37.630Z,6.40
2022-11-30T09:41:21.025Z,6.40
2022-11-30T09:43:57.201Z,6.40
2022-11-30T09:46:33.609Z,6.40
2022-11-30T09:49:07.068Z,6.50
2022-11-30T09:51:44.401Z,6.50
2022-11-30T09:54:16.343Z,6.50
2022-11-30T09:56:46.650Z,6.50
2022-11-30T09:59:20.499Z,6.50
2022-11-30T10:01:52.052Z,6.50
2022-11-30T10:04:27.756Z,6.50
2022-11-30T10:07:13.265Z,6.50
2022-11-30T10:10:09.359Z,6.50
2022-11-30T10:12:44.584Z,6.50
2022-11-30T10:15:31.528Z,6.60
2022-11-30T10:18:11.948Z,6.50
2022-11-30T10:21:00.294Z,6.50
2022-11-30T10:23:51.788Z,6.60
2022-11-30T10:26:28.910Z,6.60
2022-11-30T10:29:07.685Z,6.60
2022-11-30T10:31:38.287Z,6.60
2022-11-30T10:34:23.013Z,6.60
2022-11-30T10:37:00.093Z,6.60
2022-11-30T10:39:34.821Z,6.50
2022-11-30T10:42:11.797Z,6.50
2022-11-30T10:44:46.498Z,6.50
2022-11-30T10:47:22.272Z,6.50
2022-11-30T10:49:52.583Z,6.50
2022-11-30T10:52:26.628Z,6.50
2022-11-30T10:55:00.730Z,6.50
2022-11-30T10:57:32.994Z,6.50
2022-11-30T11:00:05.487Z,6.50
2022-11-30T11:02:38.732Z,6.50
2022-11-30T11:05:25.896Z,6.50
2022-11-30T11:08:01.440Z,6.40
2022-11-30T11:10:36.884Z,6.40
2022-11-30T11:13:05.231Z,6.50
2022-11-30T11:15:35.574Z,6.50
2022-11-30T11:18:25.052Z,6.50
2022-11-30T11:21:07.176Z,6.60
2022-11-30T11:23:38.393Z,6.60
2022-11-30T11:26:16.557Z,6.70
2022-11-30T11:28:47.031Z,6.70
2022-11-30T11:31:33.995Z,6.70
2022-11-30T11:34:01.194Z,6.70
2022-11-30T11:36:30.612Z,6.70
2022-11-30T11:39:01.663Z,6.70
2022-11-30T11:41:33.411Z,6.70
2022-11-30T11:44:19.725Z,6.80
2022-11-30T11:46:57.708Z,6.80
2022-11-30T11:49:28.456Z,6.80
2022-11-30T11:55:05.138Z,6.80
2022-11-30T11:58:56.018Z,6.80
2022-11-30T12:01:59.009Z,6.80
2022-11-30T12:04:45.574Z,6.80
2022-11-30T12:07:30.180Z,6.80
2022-11-30T12:10:51.408Z,6.80
2022-11-30T12:13:18.057Z,6.80
2022-11-30T12:16:01.109Z,6.80
2022-11-30T12:18:42.948Z,6.80
2022-11-30T12:21:15.646Z,6.80
2022-11-30T12:24:01.614Z,6.80
2022-11-30T12:26:38.288Z,6.80
2022-11-30T12:29:23.142Z,6.80
2022-11-30T12:32:08.583Z,6.80
2022-11-30T12:35:02.997Z,6.70
2022-11-30T12:37:47.684Z,6.80
2022-11-30T12:40:32.720Z,6.80
2022-11-30T12:43:15.550Z,6.70
2022-11-30T12:45:44.854Z,6.70
2022-11-30T12:48:30.923Z,6.70
2022-11-30T12:51:17.211Z,6.70
2022-11-30T12:54:28.370Z,6.80
2022-11-30T12:57:10.792Z,6.70
2022-11-30T12:59:52.359Z,6.70
2022-11-30T13:03:03.941Z,6.70
2022-11-30T13:05:39.892Z,6.70
2022-11-30T13:08:19.972Z,6.70
2022-11-30T13:10:54.660Z,6.70
2022-11-30T13:13:29.010Z,6.70
2022-11-30T13:15:59.163Z,6.60
2022-11-30T13:18:27.712Z,6.60
2022-11-30T13:21:06.565Z,6.60
2022-11-30T13:23:43.398Z,6.60
2022-11-30T13:26:27.235Z,6.50
2022-11-30T13:29:16.566Z,6.50
2022-11-30T13:31:52.214Z,6.40
2022-11-30T13:34:26.570Z,6.40
2022-11-30T13:37:04.973Z,6.40
2022-11-30T13:39:49.020Z,6.40
2022-11-30T13:42:35.069Z,6.40
2022-11-30T13:45:35.209Z,6.40
2022-11-30T13:48:28.067Z,6.30
2022-11-30T13:50:55.187Z,6.30
2022-11-30T13:53:28.014Z,6.30
2022-11-30T13:56:04.341Z,6.20
2022-11-30T13:58:32.648Z,6.20
2022-11-30T14:01:34.569Z,6.10
2022-11-30T14:04:44.038Z,6.20
2022-11-30T14:07:37.483Z,6.10
2022-11-30T14:10:30.434Z,6.10
2022-11-30T14:13:02.999Z,6.10
2022-11-30T14:15:54.328Z,6.10
2022-11-30T14:18:42.136Z,6.10
2022-11-30T14:21:32.123Z,6.10
2022-11-30T14:24:05.593Z,6.10
2022-11-30T14:26:45.564Z,6.10
2022-11-30T14:29:20.273Z,6.10
2022-11-30T14:31:57.262Z,6.10
2022-11-30T14:34:35.578Z,6.10
2022-11-30T14:37:13.506Z,6.10
2022-11-30T14:39:45.038Z,6.00
2022-11-30T14:42:21.461Z,6.00
2022-11-30T14:44:49.489Z,6.00
2022-11-30T14:47:24.163Z,5.90
2022-11-30T14:49:54.652Z,5.90
2022-11-30T14:52:47.882Z,5.90
2022-11-30T14:55:28.539Z,5.90
2022-11-30T14:58:17.807Z,5.90
2022-11-30T15:00:46.318Z,5.90
2022-11-30T15:03:26.269Z,5.90
2022-11-30T15:05:57.250Z,5.90
2022-11-30T15:08:36.941Z,5.80
2022-11-30T15:11:06.997Z,5.80
2022-11-30T15:13:41.053Z,5.80
2022-11-30T15:16:18.672Z,5.80
2022-11-30T15:18:45.968Z,5.80
2022-11-30T15:21:19.630Z,5.80
2022-11-30T15:23:51.266Z,5.70
2022-11-30T15:26:25.416Z,5.80
2022-11-30T15:29:01.155Z,5.70
2022-11-30T15:31:35.323Z,5.70
2022-11-30T15:34:03.654Z,5.80
2022-11-30T15:36:36.578Z,5.80
2022-11-30T15:39:14.754Z,5.80
2022-11-30T15:44:43.515Z,5.90
2022-11-30T15:47:27.267Z,5.90
2022-11-30T15:49:55.841Z,6.00
2022-11-30T15:52:28.943Z,6.00
2022-11-30T15:54:57.494Z,6.00
2022-11-30T15:57:27.576Z,6.00
2022-11-30T16:00:19.487Z,6.00
2022-11-30T16:02:46.696Z,6.00
2022-11-30T16:05:25.449Z,6.00
2022-11-30T16:07:55.576Z,5.90
2022-11-30T16:10:25.828Z,5.90
2022-11-30T16:12:54.984Z,5.90
2022-11-30T16:15:27.548Z,5.90
2022-11-30T16:17:59.335Z,5.90
2022-11-30T16:20:26.771Z,5.80
2022-11-30T16:22:53.855Z,5.90
2022-11-30T16:25:23.636Z,5.80
2022-11-30T16:27:52.372Z,5.80
2022-11-30T16:30:23.552Z,5.80
2022-11-30T16:32:51.215Z,5.80
2022-11-30T16:35:22.939Z,5.80
2022-11-30T16:37:51.115Z,5.80
2022-11-30T16:40:19.281Z,5.80
2022-11-30T16:42:49.418Z,5.80
2022-11-30T16:45:21.566Z,5.80
2022-11-30T16:47:50.295Z,5.80
2022-11-30T16:50:21.139Z,5.80
2022-11-30T16:52:48.030Z,5.90
2022-11-30T16:55:20.045Z,5.90
2022-11-30T16:57:48.851Z,5.90
2022-11-30T17:00:23.690Z,5.90
2022-11-30T17:02:59.005Z,5.90
2022-11-30T17:05:27.518Z,5.80
2022-11-30T17:07:55.706Z,5.80
2022-11-30T17:10:23.384Z,5.80
2022-11-30T17:12:50.332Z,5.80
2022-11-30T17:15:23.586Z,5.80
2022-11-30T17:17:52.690Z,5.80
2022-11-30T17:20:19.774Z,5.80
2022-11-30T17:22:46.718Z,5.80
2022-11-30T17:25:22.378Z,5.80
2022-11-30T17:27:51.248Z,5.80
2022-11-30T17:30:21.519Z,5.80
2022-11-30T17:32:49.340Z,5.80
2022-11-30T17:35:21.065Z,5.80
2022-11-30T17:37:48.188Z,5.70
2022-11-30T17:40:15.266Z,5.70
2022-11-30T17:42:43.117Z,5.70
2022-11-30T17:45:11.369Z,5.70
2022-11-30T17:47:38.459Z,5.70
2022-11-30T17:50:07.929Z,5.70
2022-11-30T17:52:37.160Z,5.70
2022-11-30T17:55:05.058Z,5.70
2022-11-30T17:57:32.678Z,5.80
2022-11-30T17:59:59.970Z,5.80
2022-11-30T18:02:27.129Z,5.80
2022-11-30T18:04:54.143Z,5.80
2022-11-30T18:07:21.088Z,5.80
2022-11-30T18:09:50.488Z,5.80
2022-11-30T18:12:17.890Z,5.80
2022-11-30T18:14:45.685Z,5.80
2022-11-30T18:17:13.214Z,5.80
2022-11-30T18:19:40.191Z,5.80
2022-11-30T18:22:08.043Z,5.80
2022-11-30T18:24:38.782Z,5.70
2022-11-30T18:27:07.145Z,5.70
2022-11-30T18:29:34.213Z,5.70
2022-11-30T18:32:01.575Z,5.70
2022-11-30T18:34:28.981Z,5.70
2022-11-30T18:36:55.957Z,5.70
2022-11-30T18:39:22.941Z,5.70
2022-11-30T18:41:53.142Z,5.70
2022-11-30T18:44:21.646Z,5.70
2022-11-30T18:46:48.715Z,5.70
2022-11-30T18:49:16.985Z,5.70
2022-11-30T18:51:44.221Z,5.70
2022-11-30T18:54:11.060Z,5.70
2022-11-30T18:56:38.842Z,5.70
2022-11-30T18:59:08.258Z,5.70
2022-11-30T19:01:37.351Z,5.70
2022-11-30T19:04:08.288Z,5.70
2022-11-30T19:06:37.487Z,5.70
2022-11-30T19:09:07.508Z,5.70
2022-11-30T19:11:39.240Z,5.70
2022-11-30T19:14:07.570Z,5.70
2022-11-30T19:16:36.708Z,5.70
2022-11-30T19:19:07.519Z,5.70
2022-11-30T19:21:34.881Z,5.70
2022-11-30T19:24:01.899Z,5.70
2022-11-30T19:26:29.899Z,5.70
2022-11-30T19:28:58.156Z,5.70
2022-11-30T19:31:25.661Z,5.70
2022-11-30T19:33:56.345Z,5.70
2022-11-30T19:36:26.521Z,5.70
2022-11-30T19:38:57.489Z,5.70
2022-11-30T19:41:24.592Z,5.70
2022-11-30T19:43:59.743Z,5.70
2022-11-30T19:46:30.683Z,5.70
2022-11-30T19:49:00.874Z,5.70
2022-11-30T19:51:29.369Z,5.70
2022-11-30T19:53:56.482Z,5.70
2022-11-30T19:56:25.032Z,5.70
2022-11-30T19:59:17.664Z,5.70
2022-11-30T20:01:44.659Z,5.70
2022-11-30T20:04:12.929Z,5.70
2022-11-30T20:06:39.851Z,5.70
2022-11-30T20:09:10.597Z,5.70
2022-11-30T20:11:37.744Z,5.70
2022-11-30T20:14:04.779Z,5.70
2022-11-30T20:16:32.085Z,5.70
2022-11-30T20:19:01.497Z,5.80
2022-11-30T20:21:33.122Z,5.80
2022-11-30T20:24:04.306Z,5.80
2022-11-30T20:26:33.674Z,5.80
2022-11-30T20:29:03.087Z,5.80
2022-11-30T20:31:33.767Z,5.80
2022-11-30T20:34:01.722Z,5.80
2022-11-30T20:36:30.297Z,5.80
2022-11-30T20:38:59.174Z,5.80
2022-11-30T20:41:27.451Z,5.80
2022-11-30T20:48:24.597Z,5.70
2022-11-30T20:51:22.060Z,5.70
2022-11-30T20:54:39.528Z,5.70
2022-11-30T20:58:59.396Z,5.70
2022-11-30T21:02:05.927Z,5.70
2022-11-30T21:05:10.843Z,5.70
2022-11-30T21:08:14.105Z,5.70
2022-11-30T21:11:26.045Z,5.70
2022-11-30T21:14:15.544Z,5.80
2022-11-30T21:16:42.648Z,5.80
2022-11-30T21:19:11.590Z,5.80
2022-11-30T21:21:38.541Z,5.80
2022-11-30T21:24:08.872Z,5.80
2022-11-30T21:26:39.744Z,5.80
2022-11-30T21:29:14.954Z,5.80
2022-11-30T21:31:42.731Z,5.80
2022-11-30T21:34:09.901Z,5.80
2022-11-30T21:36:37.041Z,5.80
2022-11-30T21:39:06.993Z,5.80
2022-11-30T21:41:35.961Z,5.70
2022-11-30T21:44:04.233Z,5.70
2022-11-30T21:46:33.768Z,5.70
2022-11-30T21:49:01.197Z,5.70
2022-11-30T21:51:30.297Z,5.70
2022-11-30T21:54:00.316Z,5.70
2022-11-30T21:56:29.937Z,5.70
2022-11-30T21:59:21.746Z,5.70
2022-11-30T22:01:50.334Z,5.70
2022-11-30T22:04:17.466Z,5.70
2022-11-30T22:06:45.211Z,5.70
2022-11-30T22:11:54.214Z,5.80
2022-11-30T22:14:21.306Z,5.80
2022-11-30T22:16:50.229Z,5.80
2022-11-30T22:19:17.655Z,5.80
2022-11-30T22:21:49.704Z,5.70
2022-11-30T22:24:17.261Z,5.70
2022-11-30T22:26:45.773Z,5.70
2022-11-30T22:29:15.904Z,5.70
2022-11-30T22:31:45.867Z,5.70
2022-11-30T22:34:14.974Z,5.70
2022-11-30T22:36:43.764Z,5.70
2022-11-30T22:39:14.157Z,5.70
2022-11-30T22:41:43.005Z,5.70
2022-11-30T22:44:34.769Z,5.70
2022-11-30T22:47:01.720Z,5.70
2022-11-30T22:49:31.457Z,5.70
2022-11-30T22:51:58.494Z,5.70
2022-11-30T22:54:25.725Z,5.70
2022-11-30T22:56:52.991Z,5.70
2022-11-30T22:59:19.967Z,5.70
2022-11-30T23:01:48.802Z,5.70
2022-11-30T23:04:18.496Z,5.70
2022-11-30T23:06:48.859Z,5.70
2022-11-30T23:09:19.932Z,5.70
2022-11-30T23:11:47.680Z,5.70
2022-11-30T23:14:14.784Z,5.70
2022-11-30T23:16:42.191Z,5.70
2022-11-30T23:19:11.401Z,5.70
2022-11-30T23:21:42.086Z,5.70
2022-11-30T23:24:14.875Z,5.80
2022-11-30T23:26:42.379Z,5.80
2022-11-30T23:29:12.836Z,5.80
2022-11-30T23:31:42.446Z,5.70
2022-11-30T23:34:11.979Z,5.80
2022-11-30T23:36:39.607Z,5.80
2022-11-30T23:39:11.281Z,5.80
2022-11-30T23:44:30.589Z,5.80
2022-11-30T23:46:57.642Z,5.70
2022-11-30T23:49:24.740Z,5.70
2022-11-30T23:51:51.655Z,5.70
2022-11-30T23:54:20.134Z,5.70
2022-11-30T23:56:47.100Z,5.70
2022-11-30T23:59:14.369Z,5.70
